createdAt,value
2023-01-22T00:23:52.821Z,86.72
2023-01-22T00:53:52.807Z,86.98
2023-01-22T01:23:52.814Z,86.7
2023-01-22T01:53:52.816Z,86.66
2023-01-22T02:23:52.815Z,86.62
2023-01-22T02:53:52.831Z,86.44
2023-01-22T03:23:52.828Z,86.72
2023-01-22T03:53:52.830Z,86.55
2023-01-22T04:23:52.842Z,86.72
2023-01-22T04:53:52.852Z,86.37
2023-01-22T05:23:52.844Z,86.78
2023-01-22T05:53:52.842Z,86.56
2023-01-22T06:23:52.856Z,87.07
2023-01-22T06:53:52.859Z,86.73
2023-01-22T07:23:52.875Z,86.41
2023-01-22T07:53:52.885Z,86.76
2023-01-22T08:23:52.875Z,86.74
2023-01-22T08:53:52.882Z,86.78
2023-01-22T09:23:52.884Z,86.59
2023-01-22T09:53:52.880Z,86.29
2023-01-22T10:23:52.885Z,86.37
2023-01-22T10:53:52.890Z,86.02
2023-01-22T11:23:52.893Z,86.11
2023-01-22T11:53:52.897Z,86.21
2023-01-22T12:23:52.900Z,85.63
2023-01-22T12:53:52.901Z,85.59
2023-01-22T13:23:52.908Z,84.94
2023-01-22T13:53:54.801Z,84.97
2023-01-22T14:23:52.920Z,85
2023-01-22T14:53:52.923Z,84.79
2023-01-22T15:23:52.928Z,84.29
2023-01-22T15:53:52.930Z,84.36
2023-01-22T16:23:52.942Z,84.4
2023-01-22T16:53:52.979Z,84.47
2023-01-22T17:23:52.933Z,84.31
2023-01-22T17:53:52.946Z,84.56
2023-01-22T18:23:52.958Z,84.95
2023-01-22T19:19:14.327Z,85.3
2023-01-22T19:49:14.227Z,85.79
2023-01-22T20:19:14.232Z,86.01
2023-01-22T20:49:14.237Z,86.56
2023-01-22T21:19:14.232Z,86.84
2023-01-22T21:49:14.247Z,86.8
2023-01-22T22:19:14.253Z,86.84
2023-01-22T22:49:14.269Z,86.91
2023-01-22T23:19:14.263Z,87.12
2023-01-22T23:49:14.269Z,87.08
